createdAt,value
2022-12-03T00:04:49.308Z,64.70
2022-12-03T00:07:27.412Z,65.50
2022-12-03T00:10:08.931Z,64.90
2022-12-03T00:13:07.631Z,64.70
2022-12-03T00:15:53.265Z,64.40
2022-12-03T00:18:37.568Z,64.00
2022-12-03T00:21:28.048Z,64.30
2022-12-03T00:24:04.201Z,63.90
2022-12-03T00:27:11.723Z,64.10
2022-12-03T00:29:48.269Z,65.10
2022-12-03T00:32:28.534Z,64.30
2022-12-03T00:35:09.125Z,64.40
2022-12-03T00:37:55.800Z,65.00
2022-12-03T00:40:32.570Z,63.50
2022-12-03T00:43:28.594Z,64.70
2022-12-03T00:46:06.875Z,64.20
2022-12-03T00:49:27.242Z,63.80
2022-12-03T00:52:33.053Z,64.90
2022-12-03T00:55:11.496Z,65.20
2022-12-03T00:57:49.842Z,64.60
2022-12-03T01:00:36.172Z,64.00
2022-12-03T01:03:12.545Z,64.10
2022-12-03T01:05:48.528Z,63.70
2022-12-03T01:08:23.676Z,64.20
2022-12-03T01:11:00.934Z,64.50
2022-12-03T01:13:35.878Z,63.50
2022-12-03T01:16:13.232Z,64.10
2022-12-03T01:18:48.329Z,63.80
2022-12-03T01:21:23.926Z,63.50
2022-12-03T01:25:14.878Z,64.10
2022-12-03T01:27:55.104Z,65.10
2022-12-03T01:30:50.261Z,63.90
2022-12-03T01:33:24.633Z,62.80
2022-12-03T01:36:07.363Z,64.10
2022-12-03T01:38:45.140Z,63.80
2022-12-03T01:41:25.712Z,63.80
2022-12-03T01:44:04.932Z,63.90
2022-12-03T01:47:01.507Z,64.60
2022-12-03T01:50:07.148Z,63.80
2022-12-03T01:52:46.955Z,65.00
2022-12-03T01:55:32.888Z,64.00
2022-12-03T01:58:08.920Z,64.60
2022-12-03T02:00:47.648Z,64.00
2022-12-03T02:03:31.878Z,63.90
2022-12-03T02:06:35.916Z,64.00
2022-12-03T02:09:23.546Z,65.00
2022-12-03T02:11:59.304Z,63.90
2022-12-03T02:15:03.931Z,63.50
2022-12-03T02:17:46.236Z,64.30
2022-12-03T02:20:31.912Z,64.10
2022-12-03T02:23:37.583Z,64.40
2022-12-03T02:26:20.902Z,64.60
2022-12-03T02:29:24.527Z,63.80
2022-12-03T02:32:04.786Z,65.00
2022-12-03T02:34:44.033Z,63.80
2022-12-03T02:37:26.611Z,64.40
2022-12-03T02:40:28.486Z,64.70
2022-12-03T02:43:14.072Z,64.60
2022-12-03T02:45:59.657Z,64.00
2022-12-03T02:48:42.677Z,63.50
2022-12-03T02:51:25.504Z,63.50
2022-12-03T02:54:05.943Z,64.00
2022-12-03T02:56:40.871Z,63.60
2022-12-03T02:59:29.936Z,63.70
2022-12-03T03:02:12.385Z,64.80
2022-12-03T03:04:50.578Z,63.90
2022-12-03T03:07:26.031Z,64.30
2022-12-03T03:10:05.774Z,63.80
2022-12-03T03:12:46.709Z,64.10
2022-12-03T03:15:25.532Z,64.00
2022-12-03T03:18:03.551Z,63.60
2022-12-03T03:20:40.323Z,64.10
2022-12-03T03:23:41.670Z,63.70
2022-12-03T03:26:24.069Z,63.60
2022-12-03T03:29:03.602Z,63.40
2022-12-03T03:31:51.885Z,63.50
2022-12-03T03:34:41.837Z,63.90
2022-12-03T03:37:38.889Z,63.60
2022-12-03T03:40:19.760Z,64.90
2022-12-03T03:43:10.151Z,64.00
2022-12-03T03:46:00.839Z,62.90
2022-12-03T03:48:50.948Z,64.10
2022-12-03T03:51:27.109Z,63.80
2022-12-03T03:54:19.755Z,63.30
2022-12-03T03:57:04.433Z,63.70
2022-12-03T03:59:42.629Z,64.10
2022-12-03T04:02:30.163Z,62.70
2022-12-03T04:05:31.824Z,64.40
2022-12-03T04:08:20.458Z,64.10
2022-12-03T04:11:12.886Z,63.50
2022-12-03T04:13:47.965Z,63.70
2022-12-03T04:16:23.539Z,63.40
2022-12-03T04:19:29.348Z,63.20
2022-12-03T04:22:43.797Z,64.00
2022-12-03T04:25:36.046Z,63.20
2022-12-03T04:28:31.552Z,63.40
2022-12-03T04:31:26.453Z,63.20
2022-12-03T04:34:30.125Z,63.20
2022-12-03T04:38:01.509Z,63.90
2022-12-03T04:41:45.918Z,64.60
2022-12-03T04:44:39.877Z,64.40
2022-12-03T04:47:35.502Z,63.20
2022-12-03T04:50:22.224Z,63.70
2022-12-03T04:53:03.601Z,64.30
2022-12-03T04:55:51.704Z,63.10
2022-12-03T04:58:37.501Z,63.80
2022-12-03T05:01:27.012Z,62.60
2022-12-03T05:04:21.797Z,63.20
2022-12-03T05:07:04.205Z,63.40
2022-12-03T05:09:50.330Z,63.20
2022-12-03T05:12:39.355Z,63.40
2022-12-03T05:15:24.723Z,64.30
2022-12-03T05:18:06.010Z,63.70
2022-12-03T05:21:10.226Z,63.50
2022-12-03T05:24:02.543Z,63.80
2022-12-03T05:26:41.879Z,63.80
2022-12-03T05:29:26.947Z,63.50
2022-12-03T05:32:15.629Z,63.60
2022-12-03T05:34:56.511Z,64.20
2022-12-03T05:37:37.059Z,63.30
2022-12-03T05:40:30.637Z,63.40
2022-12-03T05:43:50.133Z,63.30
2022-12-03T05:47:01.704Z,64.30
2022-12-03T05:52:53.130Z,63.20
2022-12-03T05:55:52.163Z,62.70
2022-12-03T05:59:19.803Z,63.30
2022-12-03T06:01:55.867Z,64.30
2022-12-03T06:04:33.556Z,63.00
2022-12-03T06:07:38.829Z,63.50
2022-12-03T06:10:36.690Z,63.10
2022-12-03T06:13:42.035Z,64.10
2022-12-03T06:19:35.334Z,64.00
2022-12-03T06:22:14.431Z,63.60
2022-12-03T06:25:09.372Z,63.30
2022-12-03T06:27:47.541Z,64.70
2022-12-03T06:30:39.369Z,63.40
2022-12-03T06:34:28.183Z,64.40
2022-12-03T06:37:08.282Z,64.40
2022-12-03T06:39:50.516Z,63.20
2022-12-03T06:42:26.541Z,63.90
2022-12-03T06:45:06.514Z,63.30
2022-12-03T06:48:08.689Z,63.40
2022-12-03T06:50:50.182Z,63.30
2022-12-03T06:53:40.665Z,63.60
2022-12-03T06:56:22.137Z,63.50
2022-12-03T06:59:05.473Z,64.20
2022-12-03T07:01:48.107Z,64.10
2022-12-03T07:04:28.852Z,63.90
2022-12-03T07:07:20.793Z,64.20
2022-12-03T07:10:05.668Z,63.50
2022-12-03T07:12:52.987Z,63.60
2022-12-03T07:15:41.330Z,64.20
2022-12-03T07:21:22.330Z,63.60
2022-12-03T07:24:06.754Z,63.40
2022-12-03T07:26:47.445Z,63.20
2022-12-03T07:29:25.570Z,63.90
2022-12-03T07:32:05.685Z,63.70
2022-12-03T07:35:03.887Z,63.70
2022-12-03T07:38:10.162Z,64.00
2022-12-03T07:41:06.318Z,63.60
2022-12-03T07:43:51.444Z,63.80
2022-12-03T07:46:32.469Z,63.30
2022-12-03T07:49:20.634Z,62.80
2022-12-03T07:51:59.678Z,63.20
2022-12-03T07:54:37.794Z,63.60
2022-12-03T07:57:16.607Z,63.80
2022-12-03T08:00:21.761Z,63.20
2022-12-03T08:02:59.978Z,63.70
2022-12-03T08:06:14.963Z,63.30
2022-12-03T08:12:25.714Z,63.60
2022-12-03T08:15:17.342Z,64.00
2022-12-03T08:18:04.254Z,63.80
2022-12-03T08:20:45.543Z,64.10
2022-12-03T08:23:27.153Z,63.40
2022-12-03T08:26:21.932Z,63.90
2022-12-03T08:29:04.035Z,63.90
2022-12-03T08:32:13.417Z,62.90
2022-12-03T08:35:09.555Z,63.90
2022-12-03T08:37:47.688Z,63.70
2022-12-03T08:40:31.431Z,62.90
2022-12-03T08:43:24.347Z,63.00
2022-12-03T08:46:01.325Z,62.90
2022-12-03T08:49:16.433Z,63.30
2022-12-03T08:52:25.672Z,63.90
2022-12-03T08:55:41.711Z,63.30
2022-12-03T09:03:24.596Z,63.70
2022-12-03T09:06:53.152Z,62.90
2022-12-03T09:09:48.327Z,61.80
2022-12-03T09:12:34.852Z,62.90
2022-12-03T09:15:23.465Z,63.10
2022-12-03T09:18:25.052Z,62.60
2022-12-03T09:21:04.697Z,63.00
2022-12-03T09:23:48.026Z,62.40
2022-12-03T09:26:52.972Z,62.90
2022-12-03T09:29:43.042Z,62.80
2022-12-03T09:32:19.879Z,62.30
2022-12-03T09:35:09.608Z,62.50
2022-12-03T09:38:05.022Z,63.30
2022-12-03T09:46:51.854Z,63.00
2022-12-03T09:49:46.864Z,63.40
2022-12-03T09:52:31.096Z,63.20
2022-12-03T09:55:18.524Z,62.90
2022-12-03T09:58:06.272Z,63.10
2022-12-03T10:01:17.163Z,63.20
2022-12-03T10:03:56.986Z,62.90
2022-12-03T10:07:09.491Z,62.20
2022-12-03T10:10:46.694Z,62.90
2022-12-03T10:13:38.734Z,63.40
2022-12-03T10:16:21.598Z,62.80
2022-12-03T10:19:05.060Z,62.70
2022-12-03T10:21:46.963Z,63.50
2022-12-03T10:28:05.253Z,62.00
2022-12-03T10:34:14.912Z,62.30
2022-12-03T10:37:25.308Z,61.40
2022-12-03T10:40:11.691Z,63.30
2022-12-03T10:43:28.476Z,62.70
2022-12-03T10:46:44.888Z,62.90
2022-12-03T10:49:24.202Z,62.90
2022-12-03T10:52:04.667Z,61.40
2022-12-03T10:54:52.621Z,61.90
2022-12-03T10:57:32.169Z,60.80
2022-12-03T11:00:09.443Z,62.00
2022-12-03T11:02:58.719Z,62.20
2022-12-03T11:06:03.051Z,62.00
2022-12-03T11:09:01.412Z,62.30
2022-12-03T11:11:45.024Z,60.90
2022-12-03T11:15:10.274Z,61.20
2022-12-03T11:18:19.105Z,63.20
2022-12-03T11:21:09.374Z,63.00
2022-12-03T11:24:40.841Z,62.40
2022-12-03T11:27:35.258Z,63.10
2022-12-03T11:31:16.747Z,60.40
2022-12-03T11:35:00.009Z,63.00
2022-12-03T11:38:10.629Z,62.90
2022-12-03T11:48:57.874Z,62.00
2022-12-03T11:51:41.873Z,62.00
2022-12-03T11:54:37.548Z,61.50
2022-12-03T11:57:46.686Z,60.80
2022-12-03T12:00:54.316Z,62.80
2022-12-03T12:03:52.243Z,61.90
2022-12-03T12:06:57.615Z,61.00
2022-12-03T12:10:00.802Z,60.70
2022-12-03T12:13:30.222Z,61.40
2022-12-03T12:16:39.611Z,62.10
2022-12-03T12:19:52.661Z,61.50
2022-12-03T12:25:53.733Z,61.30
2022-12-03T12:28:37.327Z,61.30
2022-12-03T12:31:17.076Z,60.50
2022-12-03T12:33:59.014Z,61.40
2022-12-03T12:36:50.829Z,60.60
2022-12-03T12:39:30.906Z,61.50
2022-12-03T12:42:39.011Z,61.50
2022-12-03T12:45:27.975Z,62.10
2022-12-03T12:48:18.940Z,62.50
2022-12-03T12:51:08.659Z,62.10
2022-12-03T12:54:17.932Z,62.20
2022-12-03T13:00:12.783Z,60.10
2022-12-03T13:03:00.709Z,62.50
2022-12-03T13:05:44.555Z,62.20
2022-12-03T13:08:40.821Z,61.50
2022-12-03T13:11:52.870Z,62.20
2022-12-03T13:14:55.962Z,62.00
2022-12-03T13:17:37.197Z,62.60
2022-12-03T13:20:37.091Z,61.10
2022-12-03T13:26:43.314Z,62.80
2022-12-03T13:29:25.115Z,62.30
2022-12-03T13:32:06.125Z,62.50
2022-12-03T13:34:41.501Z,61.70
2022-12-03T13:37:39.730Z,61.10
2022-12-03T13:40:49.784Z,61.10
2022-12-03T13:47:48.776Z,61.00
2022-12-03T13:51:04.497Z,62.40
2022-12-03T13:54:17.715Z,62.00
2022-12-03T14:00:36.916Z,61.50
2022-12-03T14:03:29.258Z,61.60
2022-12-03T14:06:08.273Z,61.10
2022-12-03T14:09:11.679Z,61.30
2022-12-03T14:12:34.423Z,60.50
2022-12-03T14:15:13.178Z,61.70
2022-12-03T14:18:03.124Z,61.50
2022-12-03T14:20:43.703Z,60.40
2022-12-03T14:23:46.077Z,60.30
2022-12-03T14:26:25.745Z,61.50
2022-12-03T14:29:10.081Z,60.30
2022-12-03T14:31:50.064Z,60.40
2022-12-03T14:34:42.047Z,60.90
2022-12-03T14:37:19.234Z,60.40
2022-12-03T14:39:56.453Z,60.50
2022-12-03T14:42:49.883Z,60.60
2022-12-03T14:45:32.055Z,61.90
2022-12-03T14:48:12.971Z,60.30
2022-12-03T14:50:56.985Z,60.90
2022-12-03T14:53:36.946Z,60.80
2022-12-03T14:56:15.249Z,60.30
2022-12-03T14:58:52.123Z,60.80
2022-12-03T15:01:30.023Z,60.00
2022-12-03T15:04:08.671Z,61.10
2022-12-03T15:06:55.687Z,59.60
2022-12-03T15:10:22.842Z,60.20
2022-12-03T15:12:58.057Z,61.90
2022-12-03T15:15:38.211Z,59.50
2022-12-03T15:18:43.882Z,60.40
2022-12-03T15:21:25.177Z,60.50
2022-12-03T15:24:06.047Z,60.10
2022-12-03T15:27:26.750Z,61.80
2022-12-03T15:30:10.673Z,62.00
2022-12-03T15:35:46.553Z,60.20
2022-12-03T15:39:06.903Z,61.30
2022-12-03T15:42:15.798Z,61.70
2022-12-03T15:44:58.800Z,60.70
2022-12-03T15:47:53.507Z,60.30
2022-12-03T15:50:33.525Z,61.80
2022-12-03T15:53:11.732Z,60.60
2022-12-03T15:56:07.755Z,61.40
2022-12-03T15:58:44.341Z,62.20
2022-12-03T16:01:29.045Z,60.30
2022-12-03T16:04:05.792Z,60.80
2022-12-03T16:06:43.939Z,60.60
2022-12-03T16:09:35.933Z,61.00
2022-12-03T16:12:12.530Z,60.50
2022-12-03T16:14:49.204Z,61.50
2022-12-03T16:17:27.973Z,60.30
2022-12-03T16:20:07.835Z,60.60
2022-12-03T16:22:54.496Z,60.50
2022-12-03T16:25:35.403Z,61.60
2022-12-03T16:28:12.281Z,60.30
2022-12-03T16:30:51.103Z,61.20
2022-12-03T16:33:45.127Z,59.80
2022-12-03T16:36:36.634Z,60.80
2022-12-03T16:39:22.925Z,61.20
2022-12-03T16:42:00.015Z,61.30
2022-12-03T16:44:51.034Z,61.30
2022-12-03T16:47:33.632Z,59.70
2022-12-03T16:50:27.337Z,59.80
2022-12-03T16:53:05.937Z,60.00
2022-12-03T16:55:45.830Z,60.10
2022-12-03T16:58:32.136Z,59.80
2022-12-03T17:01:25.988Z,59.70
2022-12-03T17:04:19.315Z,61.10
2022-12-03T17:06:59.955Z,60.90
2022-12-03T17:09:37.650Z,60.30
2022-12-03T17:12:13.633Z,60.70
2022-12-03T17:15:15.472Z,59.50
2022-12-03T17:18:10.508Z,59.30
2022-12-03T17:20:45.392Z,59.80
2022-12-03T17:23:29.757Z,61.30
2022-12-03T17:26:37.587Z,60.10
2022-12-03T17:29:27.443Z,60.80
2022-12-03T17:32:19.987Z,60.60
2022-12-03T17:35:08.566Z,60.00
2022-12-03T17:37:57.700Z,59.30
2022-12-03T17:41:03.681Z,60.80
2022-12-03T17:44:12.115Z,60.10
2022-12-03T17:47:28.701Z,60.70
2022-12-03T17:50:22.793Z,61.20
2022-12-03T17:56:12.074Z,60.00
2022-12-03T17:59:02.574Z,61.10
2022-12-03T18:05:20.398Z,61.70
2022-12-03T18:34:54.391Z,62.10
2022-12-03T18:37:49.102Z,60.80
2022-12-03T18:41:00.901Z,61.20
2022-12-03T18:43:50.150Z,60.40
2022-12-03T18:49:59.879Z,60.10
2022-12-03T18:53:17.584Z,60.60
2022-12-03T18:55:59.124Z,60.50
2022-12-03T18:58:38.585Z,61.70
2022-12-03T19:02:00.972Z,61.60
2022-12-03T19:04:36.347Z,60.70
2022-12-03T19:10:22.507Z,59.50
2022-12-03T19:13:05.783Z,60.10
2022-12-03T19:15:55.685Z,60.40
2022-12-03T19:18:32.115Z,61.80
2022-12-03T19:21:10.602Z,60.30
2022-12-03T19:24:22.028Z,61.80
2022-12-03T19:26:43.495Z,60.70
2022-12-03T19:29:30.708Z,60.60
2022-12-03T19:32:22.415Z,60.50
2022-12-03T19:35:01.953Z,61.20
2022-12-03T19:37:42.696Z,61.30
2022-12-03T19:40:19.820Z,60.60
2022-12-03T19:42:54.561Z,60.30
2022-12-03T19:45:37.913Z,61.70
2022-12-03T19:48:17.621Z,60.40
2022-12-03T19:51:51.957Z,60.70
2022-12-03T19:55:08.218Z,60.40
2022-12-03T19:57:48.097Z,62.20
2022-12-03T20:00:32.457Z,60.80
2022-12-03T20:03:11.461Z,60.00
2022-12-03T20:06:00.854Z,60.80
2022-12-03T20:08:39.275Z,60.50
2022-12-03T20:11:17.775Z,60.40
2022-12-03T20:14:04.388Z,61.00
2022-12-03T20:16:43.318Z,61.20
2022-12-03T20:19:24.066Z,61.10
2022-12-03T20:22:03.027Z,61.00
2022-12-03T20:25:07.049Z,60.30
2022-12-03T20:27:42.870Z,60.20
2022-12-03T20:30:28.558Z,60.50
2022-12-03T20:33:07.800Z,60.60
2022-12-03T20:35:44.775Z,61.60
2022-12-03T20:38:46.123Z,61.40
2022-12-03T20:41:39.937Z,61.60
2022-12-03T20:44:18.448Z,60.80
2022-12-03T20:46:58.029Z,61.50
2022-12-03T20:49:46.237Z,60.90
2022-12-03T20:52:24.268Z,62.80
2022-12-03T20:55:12.344Z,61.30
2022-12-03T20:58:08.417Z,61.70
2022-12-03T21:00:46.971Z,61.20
2022-12-03T21:03:24.994Z,61.80
2022-12-03T21:06:04.667Z,61.80
2022-12-03T21:08:54.079Z,61.80
2022-12-03T21:11:42.781Z,61.80
2022-12-03T21:14:21.498Z,60.90
2022-12-03T21:17:09.617Z,61.20
2022-12-03T21:19:47.864Z,61.30
2022-12-03T21:22:28.647Z,60.90
2022-12-03T21:25:32.957Z,61.00
2022-12-03T21:28:32.779Z,62.60
2022-12-03T21:31:17.709Z,63.00
2022-12-03T21:33:54.223Z,62.70
2022-12-03T21:36:41.008Z,61.90
2022-12-03T21:39:29.402Z,60.70
2022-12-03T21:42:33.959Z,62.30
2022-12-03T21:45:55.932Z,61.30
2022-12-03T21:48:39.263Z,63.00
2022-12-03T21:51:33.666Z,62.00
2022-12-03T21:54:46.679Z,63.00
2022-12-03T21:57:58.379Z,62.80
2022-12-03T22:00:44.965Z,62.70
2022-12-03T22:03:24.603Z,61.70
2022-12-03T22:06:15.010Z,62.20
2022-12-03T22:08:51.709Z,61.80
2022-12-03T22:11:36.252Z,62.10
2022-12-03T22:14:13.312Z,61.70
2022-12-03T22:17:44.072Z,61.40
2022-12-03T22:20:34.972Z,63.30
2022-12-03T22:23:16.365Z,62.10
2022-12-03T22:26:07.041Z,62.10
2022-12-03T22:29:05.245Z,61.60
2022-12-03T22:31:47.659Z,63.20
2022-12-03T22:34:26.559Z,62.90
2022-12-03T22:37:06.703Z,62.00
2022-12-03T22:39:42.756Z,61.60
2022-12-03T22:42:30.075Z,61.90
2022-12-03T22:45:23.042Z,62.00
2022-12-03T22:48:04.154Z,62.00
2022-12-03T22:50:49.797Z,62.20
2022-12-03T22:54:04.360Z,61.50
2022-12-03T22:56:46.089Z,62.60
2022-12-03T22:59:22.935Z,63.20
2022-12-03T23:02:06.051Z,61.80
2022-12-03T23:04:48.568Z,62.40
2022-12-03T23:07:42.586Z,61.70
2022-12-03T23:10:35.440Z,62.20
2022-12-03T23:13:21.186Z,62.20
2022-12-03T23:16:12.052Z,61.90
2022-12-03T23:18:53.495Z,61.30
2022-12-03T23:21:37.016Z,61.20
2022-12-03T23:24:21.255Z,60.20
2022-12-03T23:27:00.620Z,61.40
2022-12-03T23:29:47.020Z,61.70
2022-12-03T23:32:40.263Z,62.40
2022-12-03T23:35:54.804Z,61.60
2022-12-03T23:38:53.254Z,62.40
2022-12-03T23:41:42.509Z,61.90
2022-12-03T23:44:26.326Z,61.90
2022-12-03T23:47:32.695Z,63.10
2022-12-03T23:50:17.238Z,61.50
2022-12-03T23:52:55.440Z,62.40
2022-12-03T23:55:49.750Z,61.90
